createdAt,value
2022-11-26T00:01:21.925Z,97993.72
2022-11-26T00:03:49.671Z,97998.06
2022-11-26T00:06:18.974Z,98000.66
2022-11-26T00:08:45.728Z,98012.06
2022-11-26T00:11:13.678Z,98003.66
2022-11-26T00:13:40.276Z,98003.66
2022-11-26T00:16:12.217Z,98019.16
2022-11-26T00:18:39.030Z,98017.38
2022-11-26T00:21:10.195Z,98016.50
2022-11-26T00:23:37.539Z,98021.13
2022-11-26T00:26:08.853Z,98028.94
2022-11-26T00:28:38.136Z,98029.75
2022-11-26T00:31:07.932Z,98036.75
2022-11-26T00:33:34.590Z,98030.69
2022-11-26T00:36:15.405Z,98035.81
2022-11-26T00:38:42.084Z,98043.72
2022-11-26T00:41:22.029Z,98041.94
2022-11-26T00:43:49.076Z,98051.38
2022-11-26T00:46:17.867Z,98049.53
2022-11-26T00:48:44.623Z,98052.28
2022-11-26T00:51:27.135Z,98061.91
2022-11-26T00:53:56.309Z,98059.16
2022-11-26T00:56:23.638Z,98059.09
2022-11-26T00:58:50.814Z,98065.13
2022-11-26T01:01:23.210Z,98065.81
2022-11-26T01:03:50.334Z,98071.75
2022-11-26T01:06:21.031Z,98079.44
2022-11-26T01:08:48.518Z,98079.09
2022-11-26T01:11:18.545Z,98085.31
2022-11-26T01:13:47.064Z,98087.88
2022-11-26T01:16:21.480Z,98087.84
2022-11-26T01:18:50.249Z,98091.03
2022-11-26T01:21:17.594Z,98106.34
2022-11-26T01:23:45.048Z,98103.69
2022-11-26T01:26:23.498Z,98109.19
2022-11-26T01:28:50.942Z,98118.19
2022-11-26T01:31:27.285Z,98112.06
2022-11-26T01:33:54.477Z,98109.47
2022-11-26T01:36:35.410Z,98111.19
2022-11-26T01:39:23.587Z,98112.06
2022-11-26T01:42:22.215Z,98120.81
2022-11-26T01:44:48.803Z,98122.56
2022-11-26T01:47:23.163Z,98124.41
2022-11-26T01:50:27.259Z,98122.69
2022-11-26T01:53:02.599Z,98121.13
2022-11-26T01:55:51.311Z,98132.38
2022-11-26T01:58:24.873Z,98134.25
2022-11-26T02:00:51.670Z,98132.53
2022-11-26T02:03:22.957Z,98139.50
2022-11-26T02:05:58.865Z,98144.75
2022-11-26T02:08:28.323Z,98143.72
2022-11-26T02:10:54.993Z,98148.09
2022-11-26T02:13:22.520Z,98144.69
2022-11-26T02:16:03.945Z,98145.50
2022-11-26T02:18:38.194Z,98139.25
2022-11-26T02:21:15.307Z,98150.34
2022-11-26T02:24:00.003Z,98146.84
2022-11-26T02:26:37.426Z,98153.03
2022-11-26T02:29:11.402Z,98152.34
2022-11-26T02:31:44.185Z,98154.00
2022-11-26T02:34:14.434Z,98159.44
2022-11-26T02:36:57.263Z,98160.81
2022-11-26T02:39:27.468Z,98159.28
2022-11-26T02:41:57.572Z,98160.34
2022-11-26T02:44:28.369Z,98167.47
2022-11-26T02:47:01.606Z,98174.38
2022-11-26T02:49:33.262Z,98167.50
2022-11-26T02:52:04.047Z,98168.22
2022-11-26T02:54:32.480Z,98160.63
2022-11-26T02:57:02.024Z,98164.06
2022-11-26T02:59:29.398Z,98163.16
2022-11-26T03:02:03.178Z,98158.88
2022-11-26T03:04:35.921Z,98159.72
2022-11-26T03:07:06.252Z,98153.75
2022-11-26T03:09:50.538Z,98152.91
2022-11-26T03:12:17.225Z,98146.91
2022-11-26T03:14:43.941Z,98143.50
2022-11-26T03:17:10.593Z,98143.56
2022-11-26T03:19:37.463Z,98147.06
2022-11-26T03:22:04.934Z,98150.63
2022-11-26T03:24:32.286Z,98148.94
2022-11-26T03:26:59.385Z,98141.28
2022-11-26T03:29:26.071Z,98136.97
2022-11-26T03:31:52.985Z,98145.69
2022-11-26T03:34:20.110Z,98149.91
2022-11-26T03:36:46.986Z,98138.72
2022-11-26T03:39:13.983Z,98141.38
2022-11-26T03:41:44.121Z,98137.13
2022-11-26T03:44:12.292Z,98137.94
2022-11-26T03:46:39.179Z,98134.63
2022-11-26T03:49:05.945Z,98141.59
2022-11-26T03:51:32.803Z,98139.94
2022-11-26T03:53:59.523Z,98144.38
2022-11-26T03:56:26.193Z,98150.38
2022-11-26T03:58:52.804Z,98156.50
2022-11-26T04:01:19.448Z,98156.53
2022-11-26T04:03:46.231Z,98155.66
2022-11-26T04:06:13.018Z,98166.09
2022-11-26T04:08:39.621Z,98162.66
2022-11-26T04:11:06.282Z,98164.34
2022-11-26T04:13:32.898Z,98167.88
2022-11-26T04:15:59.633Z,98161.84
2022-11-26T04:18:26.506Z,98167.03
2022-11-26T04:20:53.656Z,98165.16
2022-11-26T04:23:20.616Z,98158.22
2022-11-26T04:25:47.552Z,98173.88
2022-11-26T04:28:15.240Z,98175.69
2022-11-26T04:30:43.085Z,98180.13
2022-11-26T04:33:10.485Z,98184.44
2022-11-26T04:35:38.186Z,98186.16
2022-11-26T04:38:04.753Z,98200.16
2022-11-26T04:40:31.410Z,98199.31
2022-11-26T04:42:57.973Z,98204.50
2022-11-26T04:45:24.657Z,98207.88
2022-11-26T04:47:51.353Z,98215.53
2022-11-26T04:50:18.328Z,98221.72
2022-11-26T04:52:48.315Z,98225.13
2022-11-26T04:55:16.270Z,98234.69
2022-11-26T04:57:43.119Z,98236.59
2022-11-26T05:00:11.070Z,98247.03
2022-11-26T05:02:37.736Z,98247.03
2022-11-26T05:05:04.623Z,98248.75
2022-11-26T05:07:31.243Z,98254.91
2022-11-26T05:09:57.902Z,98262.75
2022-11-26T05:12:24.712Z,98267.13
2022-11-26T05:14:51.313Z,98269.66
2022-11-26T05:17:18.491Z,98273.97
2022-11-26T05:19:46.293Z,98273.97
2022-11-26T05:22:12.885Z,98271.28
2022-11-26T05:24:39.729Z,98262.50
2022-11-26T05:27:06.851Z,98261.56
2022-11-26T05:29:33.485Z,98271.81
2022-11-26T05:32:00.253Z,98275.16
2022-11-26T05:34:27.233Z,98275.94
2022-11-26T05:36:53.954Z,98272.53
2022-11-26T05:39:20.697Z,98279.34
2022-11-26T05:41:47.268Z,98282.72
2022-11-26T05:44:13.973Z,98286.03
2022-11-26T05:46:42.552Z,98286.72
2022-11-26T05:49:09.686Z,98295.09
2022-11-26T05:51:36.366Z,98292.25
2022-11-26T05:54:03.135Z,98294.50
2022-11-26T05:56:29.723Z,98295.09
2022-11-26T05:58:56.328Z,98293.22
2022-11-26T06:01:22.918Z,98293.91
2022-11-26T06:03:49.829Z,98287.91
2022-11-26T06:06:16.665Z,98287.84
2022-11-26T06:08:43.270Z,98287.72
2022-11-26T06:11:12.767Z,98294.69
2022-11-26T06:13:40.046Z,98288.53
2022-11-26T06:16:07.236Z,98275.28
2022-11-26T06:18:34.107Z,98284.63
2022-11-26T06:21:01.987Z,98281.00
2022-11-26T06:23:28.594Z,98291.28
2022-11-26T06:25:55.531Z,98285.03
2022-11-26T06:28:22.105Z,98287.56
2022-11-26T06:30:48.754Z,98296.16
2022-11-26T06:33:15.418Z,98300.34
2022-11-26T06:35:42.077Z,98302.72
2022-11-26T06:38:08.752Z,98305.19
2022-11-26T06:40:35.442Z,98309.50
2022-11-26T06:43:02.041Z,98317.25
2022-11-26T06:45:28.653Z,98323.19
2022-11-26T06:47:55.237Z,98321.31
2022-11-26T06:50:23.092Z,98329.84
2022-11-26T06:52:53.478Z,98334.00
2022-11-26T06:55:20.619Z,98337.47
2022-11-26T06:57:51.661Z,98327.72
2022-11-26T07:00:18.625Z,98326.75
2022-11-26T07:02:45.372Z,98336.16
2022-11-26T07:05:12.081Z,98336.91
2022-11-26T07:07:40.097Z,98337.69
2022-11-26T07:10:07.515Z,98333.19
2022-11-26T07:12:34.116Z,98329.59
2022-11-26T07:15:00.777Z,98328.81
2022-11-26T07:17:28.856Z,98331.31
2022-11-26T07:19:55.494Z,98332.97
2022-11-26T07:22:22.103Z,98331.19
2022-11-26T07:24:48.802Z,98333.53
2022-11-26T07:27:15.426Z,98332.41
2022-11-26T07:29:42.190Z,98333.13
2022-11-26T07:32:08.778Z,98329.53
2022-11-26T07:34:35.374Z,98332.00
2022-11-26T07:37:01.950Z,98324.03
2022-11-26T07:39:28.568Z,98332.66
2022-11-26T07:41:55.234Z,98337.75
2022-11-26T07:44:22.009Z,98333.34
2022-11-26T07:46:48.561Z,98342.84
2022-11-26T07:49:15.127Z,98346.97
2022-11-26T07:51:41.834Z,98361.69
2022-11-26T07:54:08.974Z,98360.75
2022-11-26T07:56:36.316Z,98366.97
2022-11-26T07:59:03.424Z,98381.81
2022-11-26T08:01:30.843Z,98379.16
2022-11-26T08:03:58.863Z,98388.75
2022-11-26T08:06:28.634Z,98385.13
2022-11-26T08:08:55.551Z,98387.53
2022-11-26T08:11:25.456Z,98396.00
2022-11-26T08:13:57.835Z,98396.88
2022-11-26T08:16:26.880Z,98403.72
2022-11-26T08:18:56.707Z,98395.91
2022-11-26T08:21:23.984Z,98395.78
2022-11-26T08:23:51.339Z,98403.47
2022-11-26T08:26:25.076Z,98386.78
2022-11-26T08:28:57.659Z,98388.34
2022-11-26T08:31:24.962Z,98398.78
2022-11-26T08:33:51.679Z,98403.81
2022-11-26T08:36:18.489Z,98397.59
2022-11-26T08:38:45.129Z,98399.34
2022-11-26T08:41:13.759Z,98399.09
2022-11-26T08:46:27.786Z,98404.38
2022-11-26T08:48:57.926Z,98395.38
2022-11-26T08:51:25.621Z,98390.91
2022-11-26T08:53:52.870Z,98391.63
2022-11-26T08:56:19.670Z,98395.84
2022-11-26T08:58:46.642Z,98391.31
2022-11-26T09:01:19.501Z,98403.59
2022-11-26T09:03:50.312Z,98403.50
2022-11-26T09:06:17.965Z,98410.47
2022-11-26T09:09:03.225Z,98415.69
2022-11-26T09:11:29.901Z,98411.50
2022-11-26T09:13:57.818Z,98400.00
2022-11-26T09:16:25.130Z,98394.63
2022-11-26T09:18:52.098Z,98402.09
2022-11-26T09:21:19.885Z,98396.88
2022-11-26T09:23:46.555Z,98388.38
2022-11-26T09:26:13.199Z,98384.78
2022-11-26T09:28:39.830Z,98385.31
2022-11-26T09:31:06.788Z,98389.41
2022-11-26T09:33:33.429Z,98386.28
2022-11-26T09:36:07.311Z,98400.84
2022-11-26T09:38:34.639Z,98400.28
2022-11-26T09:41:19.933Z,98394.59
2022-11-26T09:44:22.967Z,98404.38
2022-11-26T09:47:16.567Z,98405.34
2022-11-26T09:49:55.194Z,98405.19
2022-11-26T09:52:25.852Z,98415.66
2022-11-26T09:55:00.483Z,98406.78
2022-11-26T09:57:33.870Z,98406.81
2022-11-26T10:00:00.602Z,98406.59
2022-11-26T10:02:27.253Z,98398.81
2022-11-26T10:04:53.990Z,98401.66
2022-11-26T10:07:39.017Z,98404.19
2022-11-26T10:10:34.044Z,98405.84
2022-11-26T10:13:25.971Z,98412.19
2022-11-26T10:16:05.304Z,98400.13
2022-11-26T10:18:40.704Z,98398.91
2022-11-26T10:21:07.283Z,98407.78
2022-11-26T10:23:41.910Z,98406.88
2022-11-26T10:26:28.879Z,98406.53
2022-11-26T10:29:15.904Z,98401.94
2022-11-26T10:31:46.816Z,98396.47
2022-11-26T10:34:37.497Z,98390.25
2022-11-26T10:37:05.983Z,98393.66
2022-11-26T10:39:32.588Z,98393.06
2022-11-26T10:42:05.047Z,98397.19
2022-11-26T10:44:33.905Z,98395.31
2022-11-26T10:47:19.881Z,98397.75
2022-11-26T10:49:46.464Z,98406.81
2022-11-26T10:52:17.583Z,98397.25
2022-11-26T10:54:45.192Z,98400.28
2022-11-26T10:57:16.732Z,98395.09
2022-11-26T10:59:51.303Z,98399.59
2022-11-26T11:02:34.721Z,98404.50
2022-11-26T11:05:05.990Z,98401.00
2022-11-26T11:07:38.588Z,98386.09
2022-11-26T11:10:11.681Z,98388.44
2022-11-26T11:13:00.095Z,98390.19
2022-11-26T11:15:32.171Z,98385.75
2022-11-26T11:18:13.038Z,98391.66
2022-11-26T11:20:43.145Z,98376.66
2022-11-26T11:23:09.688Z,98386.19
2022-11-26T11:25:43.792Z,98393.56
2022-11-26T11:28:13.330Z,98398.00
2022-11-26T11:30:41.622Z,98403.91
2022-11-26T11:33:23.592Z,98415.44
2022-11-26T11:36:11.911Z,98407.06
2022-11-26T11:38:51.746Z,98403.75
2022-11-26T11:41:31.067Z,98408.38
2022-11-26T11:44:22.140Z,98411.16
2022-11-26T11:47:16.567Z,98410.56
2022-11-26T11:50:14.258Z,98416.84
2022-11-26T11:52:43.785Z,98415.13
2022-11-26T11:55:13.154Z,98415.13
2022-11-26T11:57:42.367Z,98423.91
2022-11-26T12:00:18.675Z,98415.44
2022-11-26T12:02:45.225Z,98417.44
2022-11-26T12:05:27.146Z,98413.72
2022-11-26T12:08:06.990Z,98419.84
2022-11-26T12:10:59.138Z,98423.53
2022-11-26T12:13:26.975Z,98428.81
2022-11-26T12:16:03.330Z,98427.00
2022-11-26T12:18:58.515Z,98420.81
2022-11-26T12:21:42.610Z,98407.41
2022-11-26T12:24:20.633Z,98402.97
2022-11-26T12:26:53.526Z,98393.19
2022-11-26T12:29:30.597Z,98389.91
2022-11-26T12:32:11.348Z,98388.09
2022-11-26T12:34:47.557Z,98379.00
2022-11-26T12:37:24.154Z,98391.00
2022-11-26T12:39:59.607Z,98384.50
2022-11-26T12:42:45.201Z,98381.31
2022-11-26T12:45:39.581Z,98385.22
2022-11-26T12:48:22.098Z,98389.31
2022-11-26T12:50:55.003Z,98396.00
2022-11-26T12:53:57.058Z,98395.69
2022-11-26T12:56:32.048Z,98398.19
2022-11-26T12:59:28.186Z,98385.69
2022-11-26T13:01:54.935Z,98384.59
2022-11-26T13:04:37.284Z,98381.78
2022-11-26T13:07:26.364Z,98386.13
2022-11-26T13:10:11.473Z,98385.81
2022-11-26T13:12:55.936Z,98383.00
2022-11-26T13:15:37.731Z,98372.88
2022-11-26T13:18:09.544Z,98371.81
2022-11-26T13:21:14.823Z,98372.47
2022-11-26T13:24:40.293Z,98372.00
2022-11-26T13:27:22.147Z,98373.69
2022-11-26T13:29:51.705Z,98374.69
2022-11-26T13:32:42.796Z,98369.84
2022-11-26T13:35:40.329Z,98369.97
2022-11-26T13:38:16.508Z,98375.59
2022-11-26T13:40:46.161Z,98372.13
2022-11-26T13:43:16.993Z,98385.63
2022-11-26T13:45:55.834Z,98380.06
2022-11-26T13:48:55.137Z,98379.03
2022-11-26T13:51:47.276Z,98380.78
2022-11-26T13:54:25.868Z,98386.28
2022-11-26T13:57:12.428Z,98376.72
2022-11-26T13:59:53.323Z,98373.19
2022-11-26T14:02:38.569Z,98372.44
2022-11-26T14:05:11.432Z,98365.44
2022-11-26T14:07:38.595Z,98371.59
2022-11-26T14:10:08.622Z,98361.97
2022-11-26T14:13:03.129Z,98361.91
2022-11-26T14:15:41.654Z,98355.06
2022-11-26T14:18:12.602Z,98355.78
2022-11-26T14:21:20.940Z,98356.59
2022-11-26T14:23:52.666Z,98352.97
2022-11-26T14:26:23.202Z,98361.97
2022-11-26T14:28:51.602Z,98354.22
2022-11-26T14:31:27.957Z,98350.56
2022-11-26T14:33:58.565Z,98353.16
2022-11-26T14:36:27.250Z,98355.97
2022-11-26T14:39:06.842Z,98357.75
2022-11-26T14:41:35.259Z,98346.59
2022-11-26T14:44:15.463Z,98348.31
2022-11-26T14:46:45.400Z,98352.75
2022-11-26T14:49:16.442Z,98341.41
2022-11-26T14:51:45.953Z,98336.97
2022-11-26T14:54:24.517Z,98347.75
2022-11-26T14:56:51.215Z,98344.44
2022-11-26T14:59:19.053Z,98336.69
2022-11-26T15:01:46.683Z,98330.72
2022-11-26T15:04:26.612Z,98337.59
2022-11-26T15:06:53.713Z,98332.69
2022-11-26T15:09:25.580Z,98324.25
2022-11-26T15:12:13.656Z,98334.09
2022-11-26T15:14:49.822Z,98323.34
2022-11-26T15:17:18.750Z,98327.16
2022-11-26T15:19:47.439Z,98325.84
2022-11-26T15:22:38.193Z,98324.44
2022-11-26T15:25:12.275Z,98320.28
2022-11-26T15:27:48.162Z,98322.91
2022-11-26T15:30:24.392Z,98329.06
2022-11-26T15:33:12.810Z,98327.38
2022-11-26T15:35:40.205Z,98325.59
2022-11-26T15:38:15.824Z,98321.09
2022-11-26T15:40:51.926Z,98327.13
2022-11-26T15:43:18.523Z,98318.69
2022-11-26T15:45:45.242Z,98322.22
2022-11-26T15:48:28.096Z,98326.38
2022-11-26T15:51:12.199Z,98323.81
2022-11-26T15:53:44.959Z,98323.91
2022-11-26T15:56:18.816Z,98330.13
2022-11-26T15:58:49.363Z,98335.25
2022-11-26T16:01:18.773Z,98329.06
2022-11-26T16:03:48.704Z,98329.91
2022-11-26T16:06:40.643Z,98333.34
2022-11-26T16:09:14.765Z,98329.16
2022-11-26T16:11:57.355Z,98324.81
2022-11-26T16:14:32.541Z,98324.72
2022-11-26T16:17:08.587Z,98323.88
2022-11-26T16:19:37.027Z,98322.75
2022-11-26T16:22:05.782Z,98327.81
2022-11-26T16:24:43.692Z,98326.22
2022-11-26T16:27:22.319Z,98323.72
2022-11-26T16:29:49.704Z,98330.75
2022-11-26T16:32:17.955Z,98330.69
2022-11-26T16:34:45.262Z,98331.41
2022-11-26T16:37:22.489Z,98330.50
2022-11-26T16:39:51.111Z,98339.03
2022-11-26T16:42:22.976Z,98338.81
2022-11-26T16:44:50.394Z,98338.66
2022-11-26T16:47:24.560Z,98341.25
2022-11-26T16:49:51.826Z,98342.06
2022-11-26T16:52:19.288Z,98344.63
2022-11-26T16:54:46.197Z,98355.16
2022-11-26T16:57:15.568Z,98350.72
2022-11-26T16:59:44.598Z,98356.75
2022-11-26T17:02:19.062Z,98349.81
2022-11-26T17:04:46.174Z,98337.50
2022-11-26T17:07:29.255Z,98350.53
2022-11-26T17:09:56.954Z,98345.25
2022-11-26T17:12:25.087Z,98341.00
2022-11-26T17:17:25.563Z,98332.50
2022-11-26T17:19:52.914Z,98330.66
2022-11-26T17:22:20.293Z,98332.34
2022-11-26T17:24:46.891Z,98340.34
2022-11-26T17:27:15.508Z,98333.28
2022-11-26T17:29:44.516Z,98345.34
2022-11-26T17:32:17.199Z,98343.66
2022-11-26T17:34:44.910Z,98339.25
2022-11-26T17:37:20.126Z,98336.81
2022-11-26T17:39:46.783Z,98334.25
2022-11-26T17:42:13.346Z,98339.66
2022-11-26T17:44:40.043Z,98332.75
2022-11-26T17:47:17.303Z,98329.41
2022-11-26T17:49:45.554Z,98334.59
2022-11-26T17:52:12.732Z,98336.38
2022-11-26T17:54:39.634Z,98338.91
2022-11-26T17:57:06.770Z,98344.91
2022-11-26T17:59:33.914Z,98336.94
2022-11-26T18:02:02.498Z,98329.19
2022-11-26T18:04:29.678Z,98324.94
2022-11-26T18:07:05.304Z,98320.75
2022-11-26T18:09:32.968Z,98321.56
2022-11-26T18:12:00.435Z,98314.50
2022-11-26T18:14:27.551Z,98314.47
2022-11-26T18:16:55.113Z,98313.59
2022-11-26T18:19:23.520Z,98314.50
2022-11-26T18:21:51.086Z,98313.72
2022-11-26T18:24:18.102Z,98314.47
2022-11-26T18:26:44.744Z,98320.59
2022-11-26T18:29:11.809Z,98318.16
2022-11-26T18:31:39.860Z,98318.09
2022-11-26T18:34:07.955Z,98316.31
2022-11-26T18:36:34.610Z,98318.94
2022-11-26T18:39:03.463Z,98322.59
2022-11-26T18:41:30.143Z,98329.69
2022-11-26T18:43:56.696Z,98330.50
2022-11-26T18:46:23.354Z,98325.34
2022-11-26T18:48:51.167Z,98321.16
2022-11-26T18:51:18.612Z,98310.63
2022-11-26T18:53:45.243Z,98297.81
2022-11-26T18:56:15.705Z,98303.88
2022-11-26T18:58:43.055Z,98290.81
2022-11-26T19:01:17.297Z,98299.47
2022-11-26T19:03:44.636Z,98295.19
2022-11-26T19:06:16.378Z,98293.44
2022-11-26T19:08:43.437Z,98297.66
2022-11-26T19:11:12.477Z,98293.38
2022-11-26T19:13:39.252Z,98291.44
2022-11-26T19:16:11.594Z,98282.84
2022-11-26T19:18:43.163Z,98275.88
2022-11-26T19:21:38.889Z,98274.44
2022-11-26T19:24:07.909Z,98278.81
2022-11-26T19:26:36.802Z,98278.81
2022-11-26T19:29:05.684Z,98284.22
2022-11-26T19:31:38.926Z,98285.91
2022-11-26T19:34:09.906Z,98282.66
2022-11-26T19:36:37.742Z,98287.84
2022-11-26T19:39:05.712Z,98284.34
2022-11-26T19:41:33.144Z,98288.03
2022-11-26T19:44:00.679Z,98281.06
2022-11-26T19:46:27.849Z,98288.91
2022-11-26T19:48:55.735Z,98290.44
2022-11-26T19:51:24.081Z,98290.66
2022-11-26T19:53:52.850Z,98282.88
2022-11-26T19:56:22.531Z,98277.69
2022-11-26T19:58:49.492Z,98267.25
2022-11-26T20:01:17.230Z,98276.09
2022-11-26T20:03:43.966Z,98273.25
2022-11-26T20:06:18.598Z,98270.72
2022-11-26T20:08:45.939Z,98265.69
2022-11-26T20:11:13.099Z,98267.50
2022-11-26T20:13:42.070Z,98265.75
2022-11-26T20:16:11.486Z,98265.78
2022-11-26T20:18:39.593Z,98265.88
2022-11-26T20:21:12.708Z,98270.16
2022-11-26T20:23:39.509Z,98270.16
2022-11-26T20:26:17.736Z,98265.69
2022-11-26T20:28:44.766Z,98264.13
2022-11-26T20:31:12.688Z,98262.50
2022-11-26T20:33:39.462Z,98260.13
2022-11-26T20:36:11.083Z,98260.19
2022-11-26T20:38:38.091Z,98269.19
2022-11-26T20:41:12.513Z,98271.69
2022-11-26T20:43:39.419Z,98282.41
2022-11-26T20:46:07.600Z,98285.09
2022-11-26T20:48:36.302Z,98290.34
2022-11-26T20:51:05.958Z,98283.59
2022-11-26T20:53:34.585Z,98282.03
2022-11-26T20:56:01.676Z,98286.25
2022-11-26T20:58:28.805Z,98280.13
2022-11-26T21:00:56.056Z,98279.19
2022-11-26T21:03:26.115Z,98276.72
2022-11-26T21:05:52.751Z,98286.41
2022-11-26T21:08:20.641Z,98289.59
2022-11-26T21:10:47.582Z,98287.06
2022-11-26T21:13:17.062Z,98293.34
2022-11-26T21:15:47.343Z,98310.00
2022-11-26T21:18:14.335Z,98306.63
2022-11-26T21:20:42.481Z,98317.09
2022-11-26T21:23:10.609Z,98323.16
2022-11-26T21:25:40.380Z,98318.69
2022-11-26T21:28:07.661Z,98314.44
2022-11-26T21:30:35.619Z,98312.75
2022-11-26T21:33:08.766Z,98313.81
2022-11-26T21:35:37.469Z,98305.03
2022-11-26T21:38:05.834Z,98302.56
2022-11-26T21:40:33.219Z,98301.84
2022-11-26T21:43:00.100Z,98300.97
2022-11-26T21:45:27.863Z,98298.28
2022-11-26T21:47:54.815Z,98305.25
2022-11-26T21:50:23.080Z,98299.06
2022-11-26T21:52:49.685Z,98306.97
2022-11-26T21:55:16.859Z,98314.97
2022-11-26T21:57:43.721Z,98309.00
2022-11-26T22:00:11.009Z,98311.56
2022-11-26T22:02:38.074Z,98310.94
2022-11-26T22:05:06.657Z,98308.28
2022-11-26T22:07:33.325Z,98302.38
2022-11-26T22:10:01.039Z,98298.13
2022-11-26T22:12:27.771Z,98291.22
2022-11-26T22:14:54.568Z,98276.47
2022-11-26T22:17:22.138Z,98273.88
2022-11-26T22:19:48.757Z,98269.72
2022-11-26T22:22:15.716Z,98263.84
2022-11-26T22:24:42.723Z,98264.91
2022-11-26T22:27:09.312Z,98263.16
2022-11-26T22:29:36.570Z,98269.28
2022-11-26T22:32:03.402Z,98258.84
2022-11-26T22:34:30.578Z,98260.53
2022-11-26T22:36:57.495Z,98252.25
2022-11-26T22:39:24.196Z,98246.19
2022-11-26T22:41:50.974Z,98238.47
2022-11-26T22:44:17.873Z,98244.53
2022-11-26T22:46:45.172Z,98242.97
2022-11-26T22:49:14.276Z,98236.94
2022-11-26T22:51:40.919Z,98237.81
2022-11-26T22:54:09.880Z,98238.00
2022-11-26T22:56:37.867Z,98224.19
2022-11-26T22:59:06.148Z,98225.13
2022-11-26T23:01:34.169Z,98219.94
2022-11-26T23:04:02.590Z,98216.53
2022-11-26T23:06:31.127Z,98208.53
2022-11-26T23:08:58.755Z,98205.94
2022-11-26T23:11:26.727Z,98199.81
2022-11-26T23:13:53.805Z,98195.41
2022-11-26T23:16:23.957Z,98201.44
2022-11-26T23:18:51.911Z,98184.94
2022-11-26T23:21:30.063Z,98187.59
2022-11-26T23:23:57.486Z,98181.91
2022-11-26T23:26:30.715Z,98187.19
2022-11-26T23:28:59.499Z,98175.09
2022-11-26T23:31:32.145Z,98175.19
2022-11-26T23:33:59.132Z,98167.41
2022-11-26T23:36:26.868Z,98153.63
2022-11-26T23:38:53.680Z,98151.06
2022-11-26T23:41:20.511Z,98147.78
2022-11-26T23:43:47.414Z,98131.22
2022-11-26T23:46:31.281Z,98131.09
2022-11-26T23:48:58.373Z,98129.16
2022-11-26T23:51:29.620Z,98125.78
2022-11-26T23:53:56.787Z,98130.91
2022-11-26T23:56:26.146Z,98122.28
2022-11-26T23:58:57.951Z,98117.19
